Time;durP1;ratioP1;P1;durP2;ratioP2;P2;SDS_P1;SDS_P2;PMS_P1;PMS_P2;Temp;Humidity;BMP_temperature;BMP_pressure;BME280_temperature;BME280_humidity;BME280_pressure;Samples;Min_cycle;Max_cycle;Signal;HPM_P1;HPM_P2
2023/01/08 00:00:42;;;;;;;8.23;7.43;;;8.20;1.00;;;;;;5055220;28;20433;-54
2023/01/08 00:03:08;;;;;;;9.10;8.10;;;8.20;1.00;;;;;;5062060;28;20676;-51
2023/01/08 00:05:34;;;;;;;10.53;8.30;;;8.20;1.00;;;;;;5060435;28;20186;-53
2023/01/08 00:07:59;;;;;;;8.53;7.73;;;8.20;1.00;;;;;;5055809;28;20178;-50
2023/01/08 00:10:25;;;;;;;8.90;7.13;;;8.20;1.00;;;;;;5055192;28;20295;-54
2023/01/08 00:12:50;;;;;;;9.67;8.67;;;8.20;1.00;;;;;;5061354;28;20174;-52
2023/01/08 00:15:16;;;;;;;9.13;7.90;;;8.20;1.00;;;;;;5057547;28;20218;-54
2023/01/08 00:17:41;;;;;;;9.93;9.03;;;8.20;1.00;;;;;;5055892;28;20181;-56
2023/01/08 00:20:07;;;;;;;13.47;8.30;;;8.20;1.00;;;;;;5052190;28;20216;-54
2023/01/08 00:22:33;;;;;;;11.20;9.07;;;8.20;1.00;;;;;;5052399;28;20270;-53
2023/01/08 00:24:59;;;;;;;11.20;8.30;;;8.20;1.00;;;;;;5060204;28;20999;-55
2023/01/08 00:27:24;;;;;;;10.13;8.50;;;8.10;1.00;;;;;;5056583;28;20289;-52
2023/01/08 00:29:50;;;;;;;9.00;8.10;;;8.10;1.00;;;;;;5059387;28;20203;-56
2023/01/08 00:32:15;;;;;;;10.07;9.00;;;8.10;1.00;;;;;;5045410;28;20423;-54
2023/01/08 00:34:41;;;;;;;10.00;8.93;;;8.20;1.00;;;;;;5058699;28;20242;-52
2023/01/08 00:37:06;;;;;;;10.80;9.30;;;8.20;1.00;;;;;;5067158;28;20225;-54
2023/01/08 00:39:32;;;;;;;10.70;9.07;;;8.20;1.00;;;;;;5057025;28;20254;-54
2023/01/08 00:41:58;;;;;;;9.27;7.67;;;8.10;1.00;;;;;;5057421;28;20667;-55
2023/01/08 00:44:23;;;;;;;12.33;10.17;;;8.10;1.00;;;;;;5059878;28;20538;-54
2023/01/08 00:46:49;;;;;;;10.20;8.70;;;8.30;1.00;;;;;;5063232;28;20646;-54
2023/01/08 00:49:14;;;;;;;10.13;8.87;;;8.30;1.00;;;;;;5062141;28;20256;-52
2023/01/08 00:51:40;;;;;;;10.37;9.23;;;8.20;1.00;;;;;;5063673;28;20243;-53
2023/01/08 00:54:06;;;;;;;10.77;9.67;;;8.20;1.00;;;;;;5070199;28;20199;-51
2023/01/08 00:56:31;;;;;;;10.20;8.30;;;8.10;1.00;;;;;;5069512;28;20195;-52
2023/01/08 00:58:57;;;;;;;10.83;9.13;;;8.10;1.00;;;;;;5058389;28;20667;-53
2023/01/08 01:01:22;;;;;;;11.40;8.90;;;8.10;1.00;;;;;;5046419;28;20185;-54
2023/01/08 01:03:48;;;;;;;9.97;8.40;;;8.20;1.00;;;;;;5063430;28;20237;-53
2023/01/08 01:06:14;;;;;;;9.70;8.23;;;8.10;1.00;;;;;;5054518;28;20197;-51
2023/01/08 01:08:40;;;;;;;9.70;8.33;;;8.10;1.00;;;;;;5063140;28;20196;-53
2023/01/08 01:11:11;;;;;;;9.77;8.73;;;8.10;1.00;;;;;;5051329;28;20635;-56
2023/01/08 01:13:37;;;;;;;9.87;8.50;;;8.10;1.00;;;;;;5061018;28;20426;-54
2023/01/08 01:16:03;;;;;;;10.47;9.17;;;8.10;1.00;;;;;;5074079;28;20446;-54
2023/01/08 01:18:29;;;;;;;10.97;8.73;;;8.10;1.00;;;;;;5066300;28;20208;-51
2023/01/08 01:20:55;;;;;;;9.47;7.97;;;8.10;1.00;;;;;;5065747;28;20414;-54
2023/01/08 01:23:21;;;;;;;11.67;8.37;;;8.10;1.00;;;;;;5058352;28;20551;-54
2023/01/08 01:25:46;;;;;;;9.90;8.90;;;8.20;1.00;;;;;;5055270;28;20186;-54
2023/01/08 01:28:12;;;;;;;10.33;8.87;;;8.20;1.00;;;;;;5060809;28;20569;-53
2023/01/08 01:30:37;;;;;;;9.83;8.83;;;8.00;1.00;;;;;;5060113;28;20201;-53
2023/01/08 01:33:03;;;;;;;10.63;9.53;;;8.10;1.00;;;;;;5068299;28;20193;-52
2023/01/08 01:35:29;;;;;;;12.23;9.20;;;8.10;1.00;;;;;;5070448;28;20672;-52
2023/01/08 01:37:54;;;;;;;8.93;8.03;;;8.10;1.00;;;;;;5065344;28;20289;-52
2023/01/08 01:40:20;;;;;;;10.60;8.87;;;8.00;1.00;;;;;;5063409;28;20596;-53
2023/01/08 01:42:45;;;;;;;9.30;8.23;;;8.10;1.00;;;;;;5064121;28;20184;-53
2023/01/08 01:45:28;;;;;;;10.67;8.90;;;8.10;1.00;;;;;;5065105;28;20197;-54
2023/01/08 01:48:08;;;;;;;10.20;9.07;;;8.10;1.00;;;;;;5057621;28;20297;-53
2023/01/08 01:50:41;;;;;;;9.73;8.23;;;8.10;1.00;;;;;;5056586;28;20536;-52
2023/01/08 01:53:13;;;;;;;11.60;9.07;;;8.20;1.00;;;;;;5055708;28;20453;-53
2023/01/08 01:55:41;;;;;;;9.93;8.90;;;8.10;1.00;;;;;;5055028;28;20447;-51
2023/01/08 01:58:18;;;;;;;9.97;8.97;;;8.10;1.00;;;;;;5068986;28;20530;-55
2023/01/08 02:00:45;;;;;;;9.40;8.47;;;8.10;1.00;;;;;;5070265;28;20565;-52
2023/01/08 02:03:12;;;;;;;10.30;9.17;;;8.10;1.00;;;;;;5053077;28;20443;-53
2023/01/08 02:05:56;;;;;;;9.60;8.60;;;8.00;1.00;;;;;;5057109;28;20506;-52
2023/01/08 02:08:51;;;;;;;10.80;9.20;;;8.10;1.00;;;;;;5058575;28;20426;-53
2023/01/08 02:11:40;;;;;;;9.83;8.87;;;8.10;1.00;;;;;;5055706;28;20975;-53
2023/01/08 02:14:33;;;;;;;12.17;10.10;;;8.10;1.00;;;;;;5042421;28;20508;-55
2023/01/08 02:17:11;;;;;;;10.00;8.60;;;8.10;1.00;;;;;;5065032;28;20797;-53
2023/01/08 02:19:51;;;;;;;8.50;7.70;;;8.00;1.00;;;;;;5059761;28;20441;-54
2023/01/08 02:22:26;;;;;;;10.13;9.13;;;8.00;1.00;;;;;;5066258;28;20447;-53
2023/01/08 02:25:09;;;;;;;10.77;9.17;;;7.90;1.00;;;;;;5070776;28;20928;-54
2023/01/08 02:27:36;;;;;;;9.50;8.17;;;7.90;1.00;;;;;;5065985;28;20443;-53
2023/01/08 02:30:03;;;;;;;9.73;8.73;;;7.90;1.00;;;;;;5056404;28;20444;-54
2023/01/08 02:32:35;;;;;;;11.97;9.30;;;7.90;1.00;;;;;;5056992;28;20833;-52
2023/01/08 02:35:01;;;;;;;11.37;9.53;;;7.80;1.00;;;;;;5053674;28;20500;-52
2023/01/08 02:37:27;;;;;;;12.73;9.87;;;7.90;1.00;;;;;;5059918;28;20768;-52
2023/01/08 02:39:55;;;;;;;10.53;9.33;;;7.90;1.00;;;;;;5057736;28;20472;-51
2023/01/08 02:42:32;;;;;;;11.80;9.30;;;7.90;1.00;;;;;;5058894;28;20189;-53
2023/01/08 02:45:25;;;;;;;11.80;10.10;;;7.90;1.00;;;;;;5064509;28;20454;-53
2023/01/08 02:47:50;;;;;;;11.57;10.13;;;8.00;1.00;;;;;;5064940;28;20462;-53
2023/01/08 02:50:36;;;;;;;13.90;10.80;;;8.00;1.00;;;;;;5061705;28;20941;-51
2023/01/08 02:53:21;;;;;;;12.03;10.40;;;7.90;1.00;;;;;;5061251;28;20191;-53
2023/01/08 02:55:58;;;;;;;11.60;9.53;;;7.80;1.00;;;;;;5064622;28;20441;-55
2023/01/08 02:58:25;;;;;;;13.50;10.87;;;7.90;1.00;;;;;;5065062;28;20486;-52
2023/01/08 03:00:53;;;;;;;12.57;9.90;;;7.90;1.00;;;;;;5056367;28;20446;-53
2023/01/08 03:03:23;;;;;;;12.67;10.47;;;7.90;1.00;;;;;;5055467;28;20932;-52
2023/01/08 03:05:55;;;;;;;11.80;10.37;;;7.90;1.00;;;;;;5059938;28;20432;-52
2023/01/08 03:08:22;;;;;;;11.23;9.87;;;7.90;1.00;;;;;;5053714;28;20436;-53
2023/01/08 03:10:53;;;;;;;14.77;11.50;;;7.90;1.00;;;;;;5061701;28;20554;-52
2023/01/08 03:13:40;;;;;;;12.40;10.60;;;7.90;1.00;;;;;;5069345;28;20443;-54
2023/01/08 03:16:13;;;;;;;14.03;11.53;;;7.90;1.00;;;;;;5064966;28;20401;-52
2023/01/08 03:18:48;;;;;;;12.53;11.13;;;7.90;1.00;;;;;;5057909;28;21001;-53
2023/01/08 03:21:15;;;;;;;12.97;10.07;;;7.90;1.00;;;;;;5068878;28;20997;-52
2023/01/08 03:23:43;;;;;;;15.73;10.77;;;7.80;1.00;;;;;;5059832;28;20450;-52
2023/01/08 03:26:12;;;;;;;12.93;11.30;;;7.80;1.00;;;;;;5071546;28;20786;-53
2023/01/08 03:28:43;;;;;;;15.93;11.30;;;7.80;1.00;;;;;;5065828;28;20486;-53
2023/01/08 03:31:09;;;;;;;14.97;11.80;;;7.80;1.00;;;;;;5058651;28;20540;-51
2023/01/08 03:33:36;;;;;;;11.80;10.60;;;7.80;1.00;;;;;;5052736;28;20414;-53
2023/01/08 03:36:04;;;;;;;16.60;12.40;;;7.80;1.00;;;;;;5061083;28;20467;-50
2023/01/08 03:38:35;;;;;;;11.83;10.60;;;7.80;1.00;;;;;;5061147;28;20578;-53
2023/01/08 03:41:07;;;;;;;13.03;10.67;;;7.80;1.00;;;;;;5058590;28;20866;-51
2023/01/08 03:43:33;;;;;;;13.27;11.53;;;7.80;1.00;;;;;;5057262;28;20796;-53
2023/01/08 03:46:02;;;;;;;15.20;12.20;;;7.80;1.00;;;;;;5061566;28;20409;-52
2023/01/08 03:48:30;;;;;;;15.77;11.90;;;7.70;1.00;;;;;;5051480;28;20278;-53
2023/01/08 03:50:55;;;;;;;14.23;12.73;;;7.80;1.00;;;;;;5060882;28;20422;-52
2023/01/08 03:53:21;;;;;;;16.03;12.13;;;7.70;1.00;;;;;;5068319;28;20447;-52
2023/01/08 03:55:47;;;;;;;12.97;11.23;;;7.70;1.00;;;;;;5059702;28;20224;-53
2023/01/08 03:58:12;;;;;;;15.70;12.27;;;7.70;1.00;;;;;;5055079;28;20531;-51
2023/01/08 04:00:38;;;;;;;15.63;12.00;;;7.80;1.00;;;;;;5058763;28;20646;-54
2023/01/08 04:03:04;;;;;;;14.40;12.63;;;7.90;1.00;;;;;;5063051;28;20183;-56
2023/01/08 04:05:30;;;;;;;14.90;12.17;;;7.90;1.00;;;;;;5070336;28;20669;-51
2023/01/08 04:07:56;;;;;;;13.60;11.10;;;7.90;1.00;;;;;;5060510;28;20447;-53
2023/01/08 04:10:25;;;;;;;18.07;12.67;;;8.00;1.00;;;;;;5049292;28;20193;-53
2023/01/08 04:12:51;;;;;;;16.20;12.10;;;8.00;1.00;;;;;;5063094;28;20430;-52
2023/01/08 04:15:17;;;;;;;15.17;11.33;;;8.00;1.00;;;;;;5057494;28;20437;-55
2023/01/08 04:17:42;;;;;;;14.00;11.80;;;8.10;1.00;;;;;;5067313;28;20188;-50
2023/01/08 04:20:08;;;;;;;17.67;12.90;;;8.10;1.00;;;;;;5052010;28;20221;-51
2023/01/08 04:22:34;;;;;;;13.50;11.33;;;8.10;1.00;;;;;;5060470;28;20196;-53
2023/01/08 04:25:00;;;;;;;13.83;11.43;;;8.10;1.00;;;;;;5053750;28;20447;-54
2023/01/08 04:27:26;;;;;;;14.87;11.90;;;8.10;1.00;;;;;;5061697;28;20434;-52
2023/01/08 04:29:51;;;;;;;14.60;12.10;;;8.10;1.00;;;;;;5076314;28;20188;-54
2023/01/08 04:32:17;;;;;;;13.37;11.40;;;8.20;1.00;;;;;;5046759;28;20826;-54
2023/01/08 04:34:43;;;;;;;16.40;13.00;;;8.10;1.00;;;;;;5060170;28;20568;-55
2023/01/08 04:37:08;;;;;;;12.93;10.87;;;8.10;1.00;;;;;;5055933;28;20661;-54
2023/01/08 04:39:34;;;;;;;13.77;10.97;;;8.10;1.00;;;;;;5060402;28;20222;-51
2023/01/08 04:41:59;;;;;;;12.20;10.37;;;8.10;1.00;;;;;;5056033;28;20220;-52
2023/01/08 04:44:25;;;;;;;13.17;11.77;;;8.20;1.00;;;;;;5052829;28;20309;-54
2023/01/08 04:46:51;;;;;;;13.87;11.20;;;8.20;1.00;;;;;;5052836;28;20181;-53
2023/01/08 04:49:16;;;;;;;15.10;12.97;;;8.20;1.00;;;;;;5063538;28;20232;-53
2023/01/08 04:51:42;;;;;;;14.50;11.73;;;8.10;1.00;;;;;;5063033;28;20196;-54
2023/01/08 04:54:08;;;;;;;12.83;11.23;;;8.10;1.00;;;;;;5056782;28;20180;-54
2023/01/08 04:56:33;;;;;;;16.73;12.27;;;7.90;1.00;;;;;;5061751;28;20280;-52
2023/01/08 04:58:59;;;;;;;13.17;11.63;;;8.00;1.00;;;;;;5056844;28;20215;-54
2023/01/08 05:01:26;;;;;;;13.47;11.80;;;7.90;1.00;;;;;;5054113;28;20242;-53
2023/01/08 05:03:57;;;;;;;14.00;11.60;;;8.00;1.00;;;;;;5075577;28;20181;-53
2023/01/08 05:06:24;;;;;;;14.20;11.83;;;8.00;1.00;;;;;;5050189;28;20440;-54
2023/01/08 05:08:49;;;;;;;16.30;12.43;;;8.10;1.00;;;;;;5067876;28;20543;-52
2023/01/08 05:11:15;;;;;;;14.10;11.93;;;8.10;1.00;;;;;;5056999;28;20484;-52
2023/01/08 05:13:41;;;;;;;15.13;13.00;;;8.10;1.00;;;;;;5061233;28;20238;-53
2023/01/08 05:16:07;;;;;;;16.90;12.47;;;8.10;1.00;;;;;;5068085;28;20190;-54
2023/01/08 05:18:32;;;;;;;14.73;11.77;;;8.10;1.00;;;;;;5054154;28;20210;-55
2023/01/08 05:21:03;;;;;;;16.47;12.50;;;8.10;1.00;;;;;;5056761;28;20477;-54
2023/01/08 05:23:30;;;;;;;14.43;11.63;;;8.10;1.00;;;;;;5063119;28;20677;-56
2023/01/08 05:26:00;;;;;;;16.20;12.10;;;8.00;1.00;;;;;;5055506;28;20920;-52
2023/01/08 05:28:26;;;;;;;16.67;12.47;;;8.10;1.00;;;;;;5060172;28;20414;-53
2023/01/08 05:30:52;;;;;;;18.37;12.57;;;8.00;1.00;;;;;;5063887;28;20448;-55
2023/01/08 05:33:18;;;;;;;16.30;12.90;;;8.00;1.00;;;;;;5063676;28;20418;-54
2023/01/08 05:35:43;;;;;;;14.63;11.83;;;8.00;1.00;;;;;;5058845;28;20196;-51
2023/01/08 05:38:09;;;;;;;16.97;13.33;;;8.00;1.00;;;;;;5060950;28;20419;-52
2023/01/08 05:40:35;;;;;;;14.47;12.03;;;7.90;1.00;;;;;;5059808;28;20669;-53
2023/01/08 05:43:00;;;;;;;16.20;12.80;;;7.70;1.00;;;;;;5061783;28;20269;-55
2023/01/08 05:45:26;;;;;;;15.37;12.77;;;8.00;1.00;;;;;;5064479;28;20301;-56
2023/01/08 05:47:53;;;;;;;19.80;14.13;;;7.90;1.00;;;;;;5058951;28;20444;-56
2023/01/08 05:50:18;;;;;;;19.00;14.53;;;7.90;1.00;;;;;;5057394;28;20248;-56
2023/01/08 05:52:44;;;;;;;18.00;12.90;;;7.90;1.00;;;;;;5056763;28;20434;-56
2023/01/08 05:55:10;;;;;;;16.53;13.00;;;8.00;1.00;;;;;;5058191;28;20192;-54
2023/01/08 05:57:36;;;;;;;15.53;13.67;;;7.90;1.00;;;;;;5058043;28;20193;-54
2023/01/08 06:00:03;;;;;;;17.67;13.03;;;7.90;1.00;;;;;;5056710;28;20209;-52
2023/01/08 06:02:28;;;;;;;16.27;13.63;;;7.90;1.00;;;;;;5058073;28;20566;-55
2023/01/08 06:04:54;;;;;;;18.50;14.13;;;7.90;1.00;;;;;;5060195;28;20443;-53
2023/01/08 06:07:19;;;;;;;18.70;15.10;;;7.90;1.00;;;;;;5055427;28;20204;-54
2023/01/08 06:09:45;;;;;;;19.93;14.20;;;8.00;1.00;;;;;;5072195;28;20200;-55
2023/01/08 06:12:11;;;;;;;20.87;15.53;;;8.00;1.00;;;;;;5061650;28;20658;-53
2023/01/08 06:14:36;;;;;;;19.70;15.00;;;8.00;1.00;;;;;;5058477;28;20186;-52
2023/01/08 06:17:02;;;;;;;18.20;13.67;;;8.00;1.00;;;;;;5060597;28;20271;-53
2023/01/08 06:19:27;;;;;;;20.67;15.23;;;7.90;1.00;;;;;;5057857;28;20224;-53
2023/01/08 06:21:53;;;;;;;17.00;14.47;;;7.90;1.00;;;;;;5059688;28;20194;-51
2023/01/08 06:24:19;;;;;;;20.50;13.77;;;7.90;1.00;;;;;;5060431;28;20662;-54
2023/01/08 06:26:44;;;;;;;19.50;13.97;;;7.80;1.00;;;;;;5058073;28;20185;-54
2023/01/08 06:29:10;;;;;;;19.07;14.73;;;7.80;1.00;;;;;;5065101;28;20194;-54
2023/01/08 06:31:35;;;;;;;20.33;15.37;;;7.90;1.00;;;;;;5067204;28;20563;-52
2023/01/08 06:34:01;;;;;;;17.90;14.77;;;7.80;1.00;;;;;;5071117;28;20264;-53
2023/01/08 06:36:26;;;;;;;19.70;13.63;;;7.70;1.00;;;;;;5062877;28;20194;-53
2023/01/08 06:38:52;;;;;;;19.20;14.30;;;7.70;1.00;;;;;;5065354;28;20209;-52
2023/01/08 06:41:18;;;;;;;18.77;13.60;;;7.70;1.00;;;;;;5057624;28;20546;-54
2023/01/08 06:43:43;;;;;;;19.37;13.17;;;7.70;1.00;;;;;;5059202;28;20535;-53
2023/01/08 06:46:09;;;;;;;18.50;14.80;;;7.70;1.00;;;;;;5054381;28;20280;-50
2023/01/08 06:48:35;;;;;;;21.00;16.23;;;7.60;1.00;;;;;;5054288;28;20600;-51
2023/01/08 06:51:03;;;;;;;22.13;15.53;;;7.70;1.00;;;;;;5058850;28;20201;-52
2023/01/08 06:53:29;;;;;;;20.93;15.43;;;7.70;1.00;;;;;;5045447;28;21159;-53
2023/01/08 06:55:57;;;;;;;21.57;14.50;;;7.80;1.00;;;;;;5049469;28;21050;-52
2023/01/08 06:58:23;;;;;;;17.10;13.80;;;7.80;1.00;;;;;;5060826;28;20447;-54
2023/01/08 07:00:50;;;;;;;15.93;12.93;;;7.80;1.00;;;;;;5058043;28;20539;-52
2023/01/08 07:03:15;;;;;;;17.93;14.50;;;7.80;1.00;;;;;;5067820;28;20879;-53
2023/01/08 07:05:41;;;;;;;18.60;13.47;;;7.90;1.00;;;;;;5059547;28;20535;-54
2023/01/08 07:08:13;;;;;;;16.07;13.10;;;8.00;1.00;;;;;;5049140;28;20838;-53
2023/01/08 07:10:39;;;;;;;16.13;12.80;;;8.00;1.00;;;;;;5058798;28;20193;-53
2023/01/08 07:13:06;;;;;;;18.90;15.17;;;8.10;1.00;;;;;;5057588;28;20514;-54
2023/01/08 07:15:32;;;;;;;16.57;13.70;;;8.10;1.00;;;;;;5055939;28;20219;-52
2023/01/08 07:17:58;;;;;;;16.63;12.13;;;8.10;1.00;;;;;;5054147;28;20422;-52
2023/01/08 07:20:23;;;;;;;15.40;12.97;;;8.10;1.00;;;;;;5057120;28;20213;-52
2023/01/08 07:22:49;;;;;;;18.53;14.50;;;8.20;1.00;;;;;;5060143;28;20183;-53
2023/01/08 07:25:14;;;;;;;18.33;14.23;;;8.20;1.00;;;;;;5068302;28;20208;-53
2023/01/08 07:27:40;;;;;;;17.17;14.27;;;8.30;1.00;;;;;;5058131;28;20584;-50
2023/01/08 07:30:06;;;;;;;18.47;13.70;;;8.30;1.00;;;;;;5058147;28;20180;-53
2023/01/08 07:32:32;;;;;;;17.17;13.50;;;8.30;1.00;;;;;;5063295;28;20276;-54
2023/01/08 07:34:58;;;;;;;18.50;13.70;;;8.40;1.00;;;;;;5061440;28;21053;-52
2023/01/08 07:37:25;;;;;;;21.90;15.03;;;8.40;1.00;;;;;;5072721;28;20222;-54
2023/01/08 07:39:51;;;;;;;17.43;12.53;;;8.40;1.00;;;;;;5052632;28;20449;-55
2023/01/08 07:42:18;;;;;;;17.20;13.47;;;8.60;1.00;;;;;;5057559;28;20475;-54
2023/01/08 07:44:43;;;;;;;19.70;14.47;;;8.50;1.00;;;;;;5065029;28;20497;-53
2023/01/08 07:47:09;;;;;;;17.47;12.40;;;8.40;1.00;;;;;;5059796;28;20433;-54
2023/01/08 07:49:35;;;;;;;17.93;13.67;;;8.50;1.00;;;;;;5054423;28;20229;-52
2023/01/08 07:52:00;;;;;;;16.33;12.03;;;8.50;1.00;;;;;;5067635;28;20188;-51
2023/01/08 07:54:26;;;;;;;14.80;11.43;;;8.60;1.00;;;;;;5059633;28;20531;-56
2023/01/08 07:56:54;;;;;;;18.07;12.40;;;8.50;1.00;;;;;;5061040;28;20186;-53
2023/01/08 07:59:20;;;;;;;16.73;12.40;;;8.60;1.00;;;;;;5066430;28;20237;-55
2023/01/08 08:01:45;;;;;;;16.30;12.73;;;8.70;1.00;;;;;;5050274;28;20477;-52
2023/01/08 08:04:14;;;;;;;16.87;11.83;;;8.60;1.00;;;;;;5057396;28;20195;-53
2023/01/08 08:06:40;;;;;;;15.80;12.57;;;8.70;1.00;;;;;;5061197;28;20185;-52
2023/01/08 08:09:05;;;;;;;15.90;12.20;;;8.80;1.00;;;;;;5057554;28;20432;-52
2023/01/08 08:11:31;;;;;;;17.10;12.10;;;8.80;1.00;;;;;;5055488;28;20859;-53
2023/01/08 08:13:57;;;;;;;17.50;12.50;;;8.80;1.00;;;;;;5057508;28;20255;-53
2023/01/08 08:16:22;;;;;;;17.50;12.77;;;8.80;1.00;;;;;;5052556;28;20188;-53
2023/01/08 08:18:48;;;;;;;12.63;10.90;;;8.80;1.00;;;;;;5052519;28;20241;-54
2023/01/08 08:21:13;;;;;;;14.80;11.60;;;8.90;1.00;;;;;;5053529;28;20194;-52
2023/01/08 08:23:39;;;;;;;14.70;11.40;;;8.90;1.00;;;;;;5056778;28;20251;-54
2023/01/08 08:26:04;;;;;;;12.40;10.93;;;9.00;1.00;;;;;;5055275;28;20177;-53
2023/01/08 08:28:30;;;;;;;13.00;10.90;;;8.90;1.00;;;;;;5061129;28;20194;-53
2023/01/08 08:30:56;;;;;;;12.90;10.90;;;8.90;1.00;;;;;;5058882;28;20189;-54
2023/01/08 08:33:21;;;;;;;12.87;10.87;;;8.90;1.00;;;;;;5048646;28;20187;-53
2023/01/08 08:35:49;;;;;;;17.70;11.67;;;8.90;1.00;;;;;;5039092;28;20192;-54
2023/01/08 08:38:15;;;;;;;14.30;11.73;;;8.90;1.00;;;;;;5053409;28;20303;-57
2023/01/08 08:40:41;;;;;;;14.90;11.60;;;8.90;1.00;;;;;;5054574;28;20603;-55
2023/01/08 08:43:08;;;;;;;12.83;11.00;;;8.90;1.00;;;;;;5070820;28;20194;-52
2023/01/08 08:45:35;;;;;;;15.17;10.87;;;8.90;1.00;;;;;;5059839;28;20920;-57
2023/01/08 08:48:01;;;;;;;13.80;10.73;;;8.90;1.00;;;;;;5054490;28;20438;-53
2023/01/08 08:50:26;;;;;;;13.47;10.47;;;9.00;1.00;;;;;;5062869;28;20452;-53
2023/01/08 08:52:58;;;;;;;13.80;10.30;;;9.00;1.00;;;;;;5057303;28;20452;-55
2023/01/08 08:55:23;;;;;;;14.53;10.67;;;9.00;1.00;;;;;;5040914;28;20194;-51
2023/01/08 08:57:49;;;;;;;13.90;10.87;;;9.10;1.00;;;;;;5062145;28;20436;-50
2023/01/08 09:00:15;;;;;;;14.13;9.80;;;9.10;1.00;;;;;;5063200;28;20214;-54
2023/01/08 09:02:41;;;;;;;13.87;9.83;;;9.10;1.00;;;;;;5068462;28;20193;-54
2023/01/08 09:05:07;;;;;;;13.50;10.53;;;9.10;1.00;;;;;;5069548;28;20410;-52
2023/01/08 09:07:32;;;;;;;11.87;9.10;;;9.10;1.00;;;;;;5055079;28;20425;-54
2023/01/08 09:09:58;;;;;;;14.67;12.10;;;9.10;1.00;;;;;;5060972;28;20186;-53
2023/01/08 09:12:24;;;;;;;13.57;9.37;;;9.10;1.00;;;;;;5054449;28;20192;-55
2023/01/08 09:14:50;;;;;;;13.07;10.07;;;9.20;1.00;;;;;;5056754;28;20259;-50
2023/01/08 09:17:16;;;;;;;11.03;9.77;;;9.30;1.00;;;;;;5053665;28;20637;-56
2023/01/08 09:19:42;;;;;;;10.63;9.53;;;9.30;1.00;;;;;;5057377;28;20468;-53
2023/01/08 09:22:07;;;;;;;13.77;9.80;;;9.40;1.00;;;;;;5052788;28;20502;-54
2023/01/08 09:24:33;;;;;;;12.60;10.43;;;9.40;1.00;;;;;;5060725;28;20200;-53
2023/01/08 09:26:59;;;;;;;12.10;10.03;;;9.30;1.00;;;;;;5058485;28;20770;-54
2023/01/08 09:29:25;;;;;;;12.47;9.90;;;9.30;1.00;;;;;;5053627;28;20708;-53
2023/01/08 09:31:50;;;;;;;12.27;9.80;;;9.30;1.00;;;;;;5052235;28;20551;-53
2023/01/08 09:34:16;;;;;;;11.97;9.90;;;9.20;1.00;;;;;;5062136;28;20194;-51
2023/01/08 09:36:42;;;;;;;11.27;9.00;;;9.20;1.00;;;;;;5059340;28;20627;-54
2023/01/08 09:39:08;;;;;;;13.63;9.77;;;9.30;1.00;;;;;;5064855;28;20217;-53
2023/01/08 09:41:39;;;;;;;13.43;8.73;;;9.30;1.00;;;;;;5055603;28;20182;-55
2023/01/08 09:44:06;;;;;;;12.40;9.77;;;9.30;1.00;;;;;;5062542;28;20455;-54
2023/01/08 09:46:32;;;;;;;13.00;10.53;;;9.20;1.00;;;;;;5059753;28;20510;-53
2023/01/08 09:49:05;;;;;;;12.50;9.90;;;9.30;1.00;;;;;;5054370;28;20484;-51
2023/01/08 09:51:34;;;;;;;12.03;9.77;;;9.30;1.00;;;;;;5042033;28;20445;-52
2023/01/08 09:54:01;;;;;;;12.70;10.00;;;9.40;1.00;;;;;;5060023;28;20482;-55
2023/01/08 09:56:28;;;;;;;11.83;9.70;;;9.40;1.00;;;;;;5060429;28;20541;-55
2023/01/08 09:58:56;;;;;;;12.40;9.87;;;9.40;1.00;;;;;;5056425;28;20447;-53
2023/01/08 10:01:25;;;;;;;12.83;10.10;;;9.50;1.00;;;;;;5071515;28;20500;-53
2023/01/08 10:04:13;;;;;;;12.80;10.30;;;9.50;1.00;;;;;;5066863;28;20458;-54
2023/01/08 10:06:40;;;;;;;12.70;9.53;;;9.50;1.00;;;;;;5053883;28;20436;-53
2023/01/08 10:09:11;;;;;;;10.00;8.47;;;9.50;1.00;;;;;;5061195;28;20493;-55
2023/01/08 10:11:45;;;;;;;10.57;9.10;;;9.50;1.00;;;;;;5058719;28;20475;-53
2023/01/08 10:14:36;;;;;;;13.03;9.10;;;9.60;1.00;;;;;;5061974;28;20448;-53
2023/01/08 10:17:19;;;;;;;10.40;9.10;;;9.70;1.00;;;;;;5040510;28;20422;-55
2023/01/08 10:19:45;;;;;;;13.23;9.27;;;9.70;1.00;;;;;;5051872;28;20439;-52
2023/01/08 10:22:20;;;;;;;12.80;10.03;;;9.70;1.00;;;;;;5059954;28;20531;-52
2023/01/08 10:24:46;;;;;;;10.93;9.73;;;9.70;1.00;;;;;;5059502;28;20706;-50
2023/01/08 10:27:22;;;;;;;12.13;9.60;;;9.80;1.00;;;;;;5054542;28;20493;-53
2023/01/08 10:29:51;;;;;;;11.23;9.93;;;9.90;1.00;;;;;;5058409;28;20414;-51
2023/01/08 10:32:30;;;;;;;12.30;9.23;;;10.00;1.00;;;;;;5055273;28;20448;-52
2023/01/08 10:34:57;;;;;;;11.70;10.13;;;10.10;1.00;;;;;;5055932;28;20521;-52
2023/01/08 10:37:35;;;;;;;14.23;10.73;;;10.10;1.00;;;;;;5047233;28;20420;-53
2023/01/08 10:40:16;;;;;;;10.20;9.07;;;10.10;1.00;;;;;;5065558;28;20468;-55
2023/01/08 10:42:42;;;;;;;12.03;9.20;;;10.10;1.00;;;;;;5061726;28;20542;-54
2023/01/08 10:45:20;;;;;;;11.23;10.07;;;10.10;1.00;;;;;;5059012;28;20477;-55
2023/01/08 10:47:48;;;;;;;12.23;9.50;;;10.00;1.00;;;;;;5062221;28;20499;-56
2023/01/08 10:50:29;;;;;;;13.33;9.17;;;10.10;1.00;;;;;;5053657;28;20460;-54
2023/01/08 10:53:03;;;;;;;12.23;9.37;;;10.00;1.00;;;;;;5058000;28;20816;-51
2023/01/08 10:55:31;;;;;;;10.63;8.70;;;10.00;1.00;;;;;;5036755;28;21199;-52
2023/01/08 10:58:03;;;;;;;11.30;9.30;;;10.10;1.00;;;;;;5053777;28;20433;-53
2023/01/08 11:00:33;;;;;;;11.43;9.00;;;10.10;1.00;;;;;;5053900;28;20806;-55
2023/01/08 11:03:07;;;;;;;12.30;9.70;;;10.10;1.00;;;;;;5053422;28;20881;-54
2023/01/08 11:05:37;;;;;;;9.60;7.77;;;10.10;1.00;;;;;;5059344;28;20912;-54
2023/01/08 11:08:12;;;;;;;10.97;8.57;;;10.10;1.00;;;;;;5073061;28;20414;-54
2023/01/08 11:10:38;;;;;;;12.00;10.03;;;10.20;1.00;;;;;;5073657;28;20435;-55
2023/01/08 11:13:06;;;;;;;11.60;8.97;;;10.20;1.00;;;;;;5073462;28;20427;-53
2023/01/08 11:15:34;;;;;;;11.00;9.77;;;10.20;1.00;;;;;;5069311;28;20186;-53
2023/01/08 11:18:19;;;;;;;11.47;9.20;;;10.30;1.00;;;;;;5054324;28;20877;-52
2023/01/08 11:20:46;;;;;;;13.17;10.10;;;10.20;1.00;;;;;;5053627;28;20447;-56
2023/01/08 11:23:19;;;;;;;12.47;9.50;;;10.10;1.00;;;;;;5063225;28;20417;-54
2023/01/08 11:25:55;;;;;;;10.57;8.53;;;10.10;1.00;;;;;;5047827;28;20431;-53
2023/01/08 11:28:49;;;;;;;10.33;9.23;;;10.10;1.00;;;;;;5055390;28;20443;-52
2023/01/08 11:31:46;;;;;;;11.13;10.03;;;10.10;1.00;;;;;;5016262;28;20503;-54
2023/01/08 11:34:20;;;;;;;13.70;9.80;;;10.10;1.00;;;;;;5064731;28;20470;-52
2023/01/08 11:36:51;;;;;;;13.67;9.33;;;10.10;1.00;;;;;;5062559;28;20493;-55
2023/01/08 11:39:18;;;;;;;11.50;9.40;;;10.10;1.00;;;;;;5056775;28;20443;-54
2023/01/08 11:42:08;;;;;;;12.03;9.37;;;10.10;1.00;;;;;;5052695;28;20939;-51
2023/01/08 11:44:58;;;;;;;15.63;10.57;;;10.10;1.00;;;;;;5056411;28;20435;-55
2023/01/08 11:47:36;;;;;;;10.47;8.67;;;10.00;1.00;;;;;;5057048;28;20922;-53
2023/01/08 11:50:15;;;;;;;13.53;10.33;;;10.00;1.00;;;;;;5048217;28;20448;-57
2023/01/08 11:53:01;;;;;;;13.70;8.90;;;9.90;1.00;;;;;;5050940;28;20448;-54
2023/01/08 11:55:52;;;;;;;11.70;9.70;;;9.90;1.00;;;;;;5053953;28;20421;-54
2023/01/08 11:58:39;;;;;;;9.93;8.23;;;9.80;1.00;;;;;;5060972;28;20435;-52
2023/01/08 12:01:13;;;;;;;12.50;9.87;;;9.80;1.00;;;;;;5056607;28;20501;-54
2023/01/08 12:03:48;;;;;;;12.17;9.53;;;9.70;1.00;;;;;;5052694;28;20428;-51
2023/01/08 12:06:34;;;;;;;10.63;9.10;;;9.70;1.00;;;;;;5057518;28;20450;-54
2023/01/08 12:09:02;;;;;;;12.63;9.00;;;9.70;1.00;;;;;;5060245;28;20452;-55
2023/01/08 12:11:34;;;;;;;11.80;9.60;;;9.70;1.00;;;;;;5058221;28;20450;-52
2023/01/08 12:14:13;;;;;;;10.97;9.00;;;9.80;1.00;;;;;;5071372;28;20454;-54
2023/01/08 12:16:44;;;;;;;11.60;9.03;;;9.90;1.00;;;;;;5064083;28;20476;-53
2023/01/08 12:19:22;;;;;;;12.13;9.70;;;10.00;1.00;;;;;;5052392;28;20822;-51
2023/01/08 12:21:48;;;;;;;14.20;9.60;;;10.00;1.00;;;;;;5052128;28;21024;-54
2023/01/08 12:24:45;;;;;;;13.87;9.43;;;10.10;1.00;;;;;;5069658;28;20521;-53
2023/01/08 12:27:35;;;;;;;11.03;9.30;;;10.10;1.00;;;;;;5033774;28;20194;-53
2023/01/08 12:30:30;;;;;;;14.10;10.70;;;10.00;1.00;;;;;;5049568;28;21033;-54
2023/01/08 12:33:01;;;;;;;13.57;9.93;;;10.00;1.00;;;;;;5035700;28;20510;-55
2023/01/08 12:35:35;;;;;;;12.10;9.17;;;9.90;1.00;;;;;;5057404;28;20561;-54
2023/01/08 12:38:20;;;;;;;12.93;10.17;;;9.90;1.00;;;;;;5065295;28;20412;-54
2023/01/08 12:40:56;;;;;;;12.00;10.00;;;9.90;1.00;;;;;;5046637;28;20526;-53
2023/01/08 12:43:56;;;;;;;10.80;8.50;;;10.00;1.00;;;;;;5059652;28;20557;-55
2023/01/08 12:46:23;;;;;;;12.00;9.93;;;10.00;1.00;;;;;;5048717;28;20489;-56
2023/01/08 12:48:52;;;;;;;12.23;10.20;;;10.00;1.00;;;;;;5051373;28;20484;-57
2023/01/08 12:51:29;;;;;;;14.10;10.30;;;10.00;1.00;;;;;;5053353;28;20455;-55
2023/01/08 12:54:10;;;;;;;14.60;9.90;;;9.90;1.00;;;;;;5045794;28;20921;-54
2023/01/08 12:56:49;;;;;;;12.90;9.70;;;10.00;1.00;;;;;;5068142;28;20447;-55
2023/01/08 12:59:43;;;;;;;13.00;9.47;;;9.90;1.00;;;;;;5072133;28;20526;-54
2023/01/08 13:02:40;;;;;;;13.90;9.73;;;9.90;1.00;;;;;;5060789;28;20490;-54